createdAt,value
2023-12-18T00:01:33.792Z,916.8
2023-12-18T00:03:17.508Z,915.6
2023-12-18T00:05:01.217Z,912.4
2023-12-18T00:06:44.905Z,909.1
2023-12-18T00:08:28.621Z,907.5
2023-12-18T00:10:12.325Z,903.5
2023-12-18T00:11:56.019Z,898.8
2023-12-18T00:13:39.717Z,895
2023-12-18T00:15:23.418Z,892.7
2023-12-18T00:17:07.118Z,887.4
2023-12-18T00:18:50.839Z,882.4
2023-12-18T00:20:34.534Z,881.3
2023-12-18T00:22:18.241Z,876.8
2023-12-18T00:24:01.943Z,869.9
2023-12-18T00:25:45.636Z,866.6
2023-12-18T00:27:29.336Z,865.1
2023-12-18T00:29:13.043Z,863
2023-12-18T00:30:56.751Z,861.3
2023-12-18T00:32:40.438Z,860.6
2023-12-18T00:34:24.164Z,857.8
2023-12-18T00:36:07.851Z,855.6
2023-12-18T00:37:51.548Z,851.1
2023-12-18T00:39:35.263Z,846.1
2023-12-18T00:41:18.948Z,843
2023-12-18T00:43:02.657Z,844.8
2023-12-18T00:44:46.367Z,845.2
2023-12-18T00:46:30.078Z,842.8
2023-12-18T00:48:13.776Z,841.6
2023-12-18T00:49:57.454Z,837.1
2023-12-18T00:51:41.169Z,836.6
2023-12-18T00:53:24.966Z,833.6
2023-12-18T00:55:08.558Z,832.5
2023-12-18T00:56:52.279Z,831.9
2023-12-18T00:58:35.976Z,831
2023-12-18T01:00:19.707Z,825.1
2023-12-18T01:02:03.390Z,822.7
2023-12-18T01:03:47.092Z,818.7
2023-12-18T01:05:30.839Z,813.2
2023-12-18T01:07:14.489Z,807.9
2023-12-18T01:08:58.193Z,808
2023-12-18T01:10:41.931Z,806.6
2023-12-18T01:12:25.584Z,809.6
2023-12-18T01:14:09.302Z,807
2023-12-18T01:15:53.034Z,806
2023-12-18T01:17:36.702Z,806.3
2023-12-18T01:19:20.415Z,804.4
2023-12-18T01:21:04.093Z,801
2023-12-18T01:22:47.809Z,796
2023-12-18T01:24:31.509Z,793.7
2023-12-18T01:26:15.194Z,791.1
2023-12-18T01:27:58.910Z,787.6
2023-12-18T01:29:42.610Z,783.3
2023-12-18T01:31:26.324Z,780.2
2023-12-18T01:33:10.029Z,775.2
2023-12-18T01:34:53.750Z,771.6
2023-12-18T01:36:37.421Z,770.6
2023-12-18T01:38:21.130Z,771.3
2023-12-18T01:40:04.819Z,769.4
2023-12-18T01:41:48.527Z,767.4
2023-12-18T01:43:32.237Z,766.5
2023-12-18T01:45:15.922Z,764.1
2023-12-18T01:46:59.620Z,763.7
2023-12-18T01:48:43.347Z,761.9
2023-12-18T01:50:27.048Z,761.8
2023-12-18T01:52:10.749Z,760.2
2023-12-18T01:53:54.446Z,758.1
2023-12-18T01:55:38.151Z,756.5
2023-12-18T01:57:21.833Z,755.6
2023-12-18T01:59:05.549Z,749.8
2023-12-18T02:00:49.253Z,744.2
2023-12-18T02:02:32.943Z,738.9
2023-12-18T02:04:16.648Z,739.4
2023-12-18T02:06:00.365Z,739
2023-12-18T02:07:44.059Z,736.3
2023-12-18T02:09:27.748Z,734.2
2023-12-18T02:11:11.467Z,733
2023-12-18T02:12:55.169Z,732.5
2023-12-18T02:14:38.867Z,731.9
2023-12-18T02:16:22.582Z,732.5
2023-12-18T02:18:06.289Z,730.4
2023-12-18T02:19:49.990Z,731
2023-12-18T02:21:33.694Z,729.2
2023-12-18T02:23:17.378Z,724.8
2023-12-18T02:25:01.132Z,722.3
2023-12-18T02:26:44.784Z,722.2
2023-12-18T02:28:28.484Z,721.2
2023-12-18T02:30:12.189Z,721
2023-12-18T02:31:55.898Z,719.4
2023-12-18T02:33:39.589Z,717.5
2023-12-18T02:35:23.308Z,716.2
2023-12-18T02:37:07.019Z,717.3
2023-12-18T02:38:50.706Z,716.8
2023-12-18T02:40:34.395Z,714.9
2023-12-18T02:42:18.116Z,714.4
2023-12-18T02:44:01.813Z,711.4
2023-12-18T02:45:45.521Z,710.1
2023-12-18T02:47:29.213Z,706.7
2023-12-18T02:49:12.930Z,706.7
2023-12-18T02:50:56.636Z,704.8
2023-12-18T02:52:40.341Z,702.1
2023-12-18T02:54:24.019Z,702.3
2023-12-18T02:56:07.736Z,699.9
2023-12-18T02:57:51.430Z,695
2023-12-18T02:59:35.153Z,694.5
2023-12-18T03:01:18.830Z,692.5
2023-12-18T03:03:02.542Z,691.7
2023-12-18T03:04:46.466Z,690.7
2023-12-18T03:06:29.947Z,688.8
2023-12-18T03:08:13.646Z,688.6
2023-12-18T03:09:57.337Z,689.4
2023-12-18T03:11:41.041Z,688.7
2023-12-18T03:13:24.740Z,686.7
2023-12-18T03:15:08.486Z,686.4
2023-12-18T03:16:52.148Z,682
2023-12-18T03:18:35.866Z,679.9
2023-12-18T03:20:19.570Z,678.8
2023-12-18T03:22:03.275Z,676.8
2023-12-18T03:23:46.969Z,677.9
2023-12-18T03:25:30.661Z,675.3
2023-12-18T03:27:14.378Z,673.8
2023-12-18T03:28:58.083Z,673.5
2023-12-18T03:30:41.777Z,674.4
2023-12-18T03:32:25.474Z,674.2
2023-12-18T03:34:09.166Z,673.7
2023-12-18T03:35:52.891Z,672
2023-12-18T03:37:36.640Z,667.5
2023-12-18T03:39:20.303Z,660.4
2023-12-18T03:41:03.997Z,659.2
2023-12-18T03:42:47.689Z,661.2
2023-12-18T03:44:31.407Z,663
2023-12-18T03:46:15.104Z,665.1
2023-12-18T03:47:58.790Z,662.6
2023-12-18T03:49:42.506Z,663.1
2023-12-18T03:51:26.191Z,663.2
2023-12-18T03:53:09.923Z,662.5
2023-12-18T03:54:53.614Z,661.6
2023-12-18T03:56:37.294Z,661
2023-12-18T03:58:21.002Z,659.8
2023-12-18T04:00:04.714Z,661
2023-12-18T04:01:48.522Z,660.2
2023-12-18T04:03:32.115Z,660.5
2023-12-18T04:05:15.819Z,656.8
2023-12-18T04:06:59.543Z,654.7
2023-12-18T04:08:43.239Z,654.2
2023-12-18T04:10:26.947Z,651.6
2023-12-18T04:12:10.619Z,653.9
2023-12-18T04:13:54.322Z,650.7
2023-12-18T04:15:38.044Z,650
2023-12-18T04:17:21.743Z,647.2
2023-12-18T04:19:05.442Z,647.9
2023-12-18T04:20:49.144Z,645.8
2023-12-18T04:22:32.837Z,645.6
2023-12-18T04:24:16.542Z,646.3
2023-12-18T04:26:00.264Z,641.9
2023-12-18T04:27:43.938Z,639.6
2023-12-18T04:29:27.662Z,638.5
2023-12-18T04:31:11.347Z,637.2
2023-12-18T04:32:55.052Z,636.7
2023-12-18T04:34:38.746Z,636.9
2023-12-18T04:36:22.456Z,636.5
2023-12-18T04:38:06.156Z,634.6
2023-12-18T04:39:49.868Z,633.7
2023-12-18T04:41:33.567Z,634.7
2023-12-18T04:43:17.273Z,629.9
2023-12-18T04:45:00.970Z,626.2
2023-12-18T04:46:44.670Z,621.9
2023-12-18T04:48:28.377Z,620
2023-12-18T04:50:12.073Z,620.6
2023-12-18T04:51:55.761Z,620
2023-12-18T04:53:39.491Z,617.7
2023-12-18T04:55:23.183Z,617.3
2023-12-18T04:57:06.885Z,617.9
2023-12-18T04:58:50.608Z,619.7
2023-12-18T05:00:34.294Z,619.3
2023-12-18T05:02:17.992Z,618.7
2023-12-18T05:04:01.705Z,618.4
2023-12-18T05:05:45.394Z,618.8
2023-12-18T05:07:29.096Z,618.9
2023-12-18T05:09:12.800Z,618.2
2023-12-18T05:10:56.498Z,615.5
2023-12-18T05:12:40.213Z,616.1
2023-12-18T05:14:23.887Z,614.3
2023-12-18T05:16:07.607Z,612.7
2023-12-18T05:17:51.367Z,613.6
2023-12-18T05:19:35.017Z,612.8
2023-12-18T05:21:18.717Z,616.1
2023-12-18T05:23:02.490Z,614.3
2023-12-18T05:24:46.115Z,611.4
2023-12-18T05:26:29.910Z,612.8
2023-12-18T05:28:13.515Z,612.5
2023-12-18T05:29:57.227Z,611.1
2023-12-18T05:31:40.928Z,608.4
2023-12-18T05:33:24.623Z,607.7
2023-12-18T05:35:08.337Z,609
2023-12-18T05:36:52.020Z,608
2023-12-18T05:38:35.726Z,608.8
2023-12-18T05:40:19.431Z,608.3
2023-12-18T05:42:03.133Z,605.6
2023-12-18T05:43:46.819Z,602.7
2023-12-18T05:45:30.527Z,605
2023-12-18T05:47:14.236Z,605.7
2023-12-18T05:48:57.941Z,603.3
2023-12-18T05:50:41.662Z,600.3
2023-12-18T05:52:25.344Z,599.8
2023-12-18T05:54:09.037Z,599
2023-12-18T05:55:52.789Z,597.3
2023-12-18T05:57:36.448Z,599.4
2023-12-18T05:59:20.154Z,601.1
2023-12-18T06:01:03.847Z,601.9
2023-12-18T06:02:47.568Z,600.1
2023-12-18T06:04:31.241Z,599.8
2023-12-18T06:06:14.946Z,602.2
2023-12-18T06:07:58.650Z,602.4
2023-12-18T06:09:42.357Z,603.3
2023-12-18T06:11:26.044Z,603.3
2023-12-18T06:13:09.761Z,602.2
2023-12-18T06:14:53.458Z,600.9
2023-12-18T06:16:37.180Z,603.4
2023-12-18T06:18:20.870Z,602
2023-12-18T06:20:04.582Z,602.7
2023-12-18T06:21:48.265Z,602.7
2023-12-18T06:23:31.979Z,601.1
2023-12-18T06:25:15.693Z,599.2
2023-12-18T06:26:59.382Z,598
2023-12-18T06:28:43.085Z,595.1
2023-12-18T06:30:26.777Z,596.3
2023-12-18T06:32:10.494Z,596.4
2023-12-18T06:33:54.212Z,598.7
2023-12-18T06:35:37.888Z,598.6
2023-12-18T06:37:21.592Z,600.9
2023-12-18T06:39:05.290Z,600.8
2023-12-18T06:40:48.992Z,601.4
2023-12-18T06:42:32.700Z,602.8
2023-12-18T06:44:16.416Z,601.9
2023-12-18T06:46:00.100Z,597.5
2023-12-18T06:47:43.801Z,596.8
2023-12-18T06:49:27.499Z,595.3
2023-12-18T06:51:11.204Z,593.5
2023-12-18T06:52:54.903Z,591.2
2023-12-18T06:54:38.612Z,591
2023-12-18T06:56:22.317Z,591.6
2023-12-18T06:58:06.002Z,592
2023-12-18T06:59:49.730Z,589.3
2023-12-18T07:01:33.408Z,586.9
2023-12-18T07:03:17.098Z,588.9
2023-12-18T07:05:00.804Z,589.5
2023-12-18T07:06:44.528Z,586.7
2023-12-18T07:08:28.337Z,584.4
2023-12-18T07:10:11.903Z,583.3
2023-12-18T07:11:55.633Z,582.8
2023-12-18T07:13:39.329Z,582.9
2023-12-18T07:15:23.036Z,584.2
2023-12-18T07:17:06.740Z,588.2
2023-12-18T07:18:50.428Z,590.8
2023-12-18T07:20:34.132Z,590.8
2023-12-18T07:22:17.848Z,588.8
2023-12-18T07:24:01.541Z,590.5
2023-12-18T07:25:45.269Z,591.7
2023-12-18T07:27:28.988Z,590.2
2023-12-18T07:29:12.634Z,591.5
2023-12-18T07:30:56.357Z,591.8
2023-12-18T07:32:40.208Z,588.8
2023-12-18T07:34:23.734Z,588.7
2023-12-18T07:36:07.470Z,585.6
2023-12-18T07:37:51.145Z,586.5
2023-12-18T07:39:34.860Z,606.6
2023-12-18T07:41:18.561Z,643.9
2023-12-18T07:43:02.265Z,628.2
2023-12-18T07:44:46.019Z,618.6
2023-12-18T07:46:29.653Z,610.4
2023-12-18T07:48:13.345Z,602.3
2023-12-18T07:49:57.056Z,600.7
2023-12-18T07:51:40.748Z,597.6
2023-12-18T07:53:24.501Z,596.9
2023-12-18T07:55:08.191Z,596.1
2023-12-18T07:56:51.889Z,597.1
2023-12-18T07:58:35.564Z,600.6
2023-12-18T08:00:19.271Z,603.1
2023-12-18T08:02:03.098Z,602.2
2023-12-18T08:03:46.694Z,599.6
2023-12-18T08:05:30.410Z,598.6
2023-12-18T08:07:14.084Z,601.3
2023-12-18T08:08:57.765Z,599.7
2023-12-18T08:10:41.487Z,602.8
2023-12-18T08:12:25.178Z,604.6
2023-12-18T08:14:08.893Z,607.6
2023-12-18T08:15:52.568Z,607.5
2023-12-18T08:17:36.293Z,606.2
2023-12-18T08:19:19.997Z,605.2
2023-12-18T08:21:03.702Z,606.7
2023-12-18T08:22:47.396Z,608.1
2023-12-18T08:24:31.096Z,604.8
2023-12-18T08:26:14.811Z,605.7
2023-12-18T08:27:58.508Z,607.8
2023-12-18T08:29:42.207Z,611.1
2023-12-18T08:31:25.913Z,614.4
2023-12-18T08:33:09.641Z,616.4
2023-12-18T08:34:53.310Z,619
2023-12-18T08:36:37.016Z,620.6
2023-12-18T08:38:20.726Z,618.8
2023-12-18T08:40:04.411Z,619.8
2023-12-18T08:41:48.131Z,620.5
2023-12-18T08:43:31.815Z,618.3
2023-12-18T08:45:15.528Z,620.9
2023-12-18T08:46:59.233Z,623.7
2023-12-18T08:48:42.909Z,627
2023-12-18T08:50:26.766Z,629.3
2023-12-18T08:52:10.312Z,629.2
2023-12-18T08:53:54.135Z,629.1
2023-12-18T08:55:37.721Z,628.1
2023-12-18T08:57:21.473Z,629.6
2023-12-18T08:59:05.178Z,630.4
2023-12-18T09:00:48.834Z,629.3
2023-12-18T09:02:32.539Z,628.8
2023-12-18T09:04:16.229Z,630
2023-12-18T09:05:59.927Z,627.9
2023-12-18T09:07:43.641Z,626.8
2023-12-18T09:09:27.344Z,627.7
2023-12-18T09:11:11.044Z,626.8
2023-12-18T09:12:54.761Z,627.7
2023-12-18T09:14:38.464Z,628.8
2023-12-18T09:16:22.148Z,628.4
2023-12-18T09:18:05.861Z,627.7
2023-12-18T09:19:49.632Z,628.5
2023-12-18T09:21:33.333Z,628.6
2023-12-18T09:23:16.950Z,627.9
2023-12-18T09:25:00.676Z,627.4
2023-12-18T09:26:44.378Z,628.3
2023-12-18T09:28:28.138Z,627.6
2023-12-18T09:30:11.965Z,628.1
2023-12-18T09:31:55.714Z,628.8
2023-12-18T09:33:39.264Z,641.2
2023-12-18T09:35:23.063Z,660.7
2023-12-18T09:37:06.715Z,664.5
2023-12-18T09:38:50.359Z,670.2
2023-12-18T09:40:34.058Z,674.8
2023-12-18T09:42:17.888Z,681.6
2023-12-18T09:44:01.652Z,684.6
2023-12-18T09:45:45.241Z,685.7
2023-12-18T09:47:29.030Z,687.1
2023-12-18T09:49:12.815Z,686.3
2023-12-18T09:50:56.507Z,682.6
2023-12-18T09:52:39.898Z,677.7
2023-12-18T09:54:23.798Z,673.1
2023-12-18T09:56:07.325Z,668.3
2023-12-18T09:57:51.069Z,663
2023-12-18T09:59:34.773Z,661.4
2023-12-18T10:01:18.437Z,665.4
2023-12-18T10:03:02.124Z,670
2023-12-18T10:04:45.839Z,671.9
2023-12-18T10:06:29.659Z,678.2
2023-12-18T10:08:13.322Z,684.9
2023-12-18T10:09:57.100Z,692.1
2023-12-18T10:11:40.909Z,693.3
2023-12-18T10:13:24.322Z,692.7
2023-12-18T10:15:08.019Z,696
2023-12-18T10:16:51.907Z,694.9
2023-12-18T10:18:35.549Z,690.1
2023-12-18T10:20:19.150Z,688.5
2023-12-18T10:22:02.885Z,687.2
2023-12-18T10:23:46.567Z,687.3
2023-12-18T10:25:30.241Z,682.1
2023-12-18T10:27:14.037Z,685.4
2023-12-18T10:28:58.047Z,687.9
2023-12-18T10:30:41.567Z,688.3
2023-12-18T10:32:25.231Z,691.6
2023-12-18T10:34:09.056Z,697
2023-12-18T10:35:52.663Z,697.6
2023-12-18T10:37:36.469Z,698.7
2023-12-18T10:39:20.095Z,700.7
2023-12-18T10:41:03.872Z,701.5
2023-12-18T10:42:47.479Z,705.4
2023-12-18T10:44:31.139Z,708.3
2023-12-18T10:46:14.928Z,709.6
2023-12-18T10:47:58.501Z,712.3
2023-12-18T10:49:42.168Z,711.3
2023-12-18T10:51:25.874Z,712.4
2023-12-18T10:53:09.605Z,714.3
2023-12-18T10:54:53.510Z,716.6
2023-12-18T10:56:37.085Z,722.5
2023-12-18T10:58:20.868Z,729.9
2023-12-18T11:00:04.520Z,738.3
2023-12-18T11:01:48.124Z,748.7
2023-12-18T11:03:31.980Z,753
2023-12-18T11:05:15.405Z,756.2
2023-12-18T11:06:59.102Z,759.5
2023-12-18T11:10:26.517Z,759.8
2023-12-18T11:12:10.336Z,758.2
2023-12-18T11:13:54.006Z,759.3
2023-12-18T11:15:37.731Z,758
2023-12-18T11:17:21.319Z,761.6
2023-12-18T11:19:05.356Z,808.8
2023-12-18T11:20:49.002Z,856.8
2023-12-18T11:22:32.634Z,867.6
2023-12-18T11:24:16.261Z,853.6
2023-12-18T11:26:00.053Z,813
2023-12-18T11:27:43.750Z,814
2023-12-18T11:29:27.443Z,811.2
2023-12-18T11:31:10.927Z,818.6
2023-12-18T11:32:54.939Z,831.6
2023-12-18T11:34:38.344Z,835
2023-12-18T11:36:22.260Z,833.4
2023-12-18T11:38:05.907Z,834.5
2023-12-18T11:39:49.619Z,838.3
2023-12-18T11:41:33.166Z,840.4
2023-12-18T11:45:00.602Z,846
2023-12-18T11:46:44.265Z,851.4
2023-12-18T11:48:28.070Z,855.8
2023-12-18T11:50:11.665Z,859.2
2023-12-18T11:51:55.505Z,866.3
2023-12-18T11:53:39.128Z,878.5
2023-12-18T11:55:22.798Z,889.2
2023-12-18T11:57:06.636Z,888.6
2023-12-18T11:58:50.325Z,899.3
2023-12-18T12:00:33.894Z,902.9
2023-12-18T12:02:17.781Z,903.8
2023-12-18T12:04:01.291Z,919.8
2023-12-18T12:05:45.000Z,1010.8
2023-12-18T12:07:28.684Z,1016.2
2023-12-18T12:09:12.403Z,1020.6
2023-12-18T12:10:56.255Z,1033.1
2023-12-18T12:12:39.789Z,1030.6
2023-12-18T12:14:23.587Z,1031.4
2023-12-18T12:16:07.316Z,1032.2
2023-12-18T12:17:50.897Z,1034.5
2023-12-18T12:19:34.779Z,1037.5
2023-12-18T12:21:18.404Z,1031.2
2023-12-18T12:23:02.179Z,1034.5
2023-12-18T12:24:45.716Z,1039.3
2023-12-18T12:26:29.538Z,1044.2
2023-12-18T12:28:13.227Z,1044.9
2023-12-18T12:29:56.960Z,1041.5
2023-12-18T12:31:40.654Z,1045.1
2023-12-18T12:33:24.329Z,1041.5
2023-12-18T12:35:08.031Z,1031.9
2023-12-18T12:36:51.657Z,1022.8
2023-12-18T12:38:35.366Z,1022.6
2023-12-18T12:40:19.043Z,1031
2023-12-18T12:42:03.017Z,1041.5
2023-12-18T12:43:46.461Z,1041.1
2023-12-18T12:45:30.468Z,1041.7
2023-12-18T12:47:14.082Z,1041.6
2023-12-18T12:48:57.783Z,1043.3
2023-12-18T12:50:41.272Z,1038.2
2023-12-18T12:52:25.041Z,1037.9
2023-12-18T12:54:08.712Z,1040.6
2023-12-18T12:55:52.462Z,1042.1
2023-12-18T12:57:36.201Z,1046
2023-12-18T12:59:19.936Z,1054.2
2023-12-18T13:01:03.674Z,1065.9
2023-12-18T13:02:47.206Z,1077.6
2023-12-18T13:04:30.979Z,1087.4
2023-12-18T13:06:14.597Z,1093.8
2023-12-18T13:07:58.292Z,1081.9
2023-12-18T13:09:41.999Z,1064.2
2023-12-18T13:11:25.740Z,1056.3
2023-12-18T13:13:09.406Z,1051.5
2023-12-18T13:14:53.116Z,1049.1
2023-12-18T13:16:36.783Z,1053.1
2023-12-18T13:18:20.484Z,1056
2023-12-18T13:20:04.177Z,1054.9
2023-12-18T13:21:47.899Z,1053.4
2023-12-18T13:23:31.725Z,1052.8
2023-12-18T13:25:15.408Z,1055.3
2023-12-18T13:26:59.273Z,1063.2
2023-12-18T13:28:42.850Z,1067
2023-12-18T13:30:26.696Z,1069.4
2023-12-18T13:32:10.416Z,1074.5
2023-12-18T13:33:53.855Z,1076.3
2023-12-18T13:35:37.731Z,1074.9
2023-12-18T13:37:21.541Z,1076.6
2023-12-18T13:39:04.977Z,1084.7
2023-12-18T13:40:48.973Z,1094.9
2023-12-18T13:42:32.676Z,1102.6
2023-12-18T13:44:16.374Z,1107.4
2023-12-18T13:46:00.130Z,1110.3
2023-12-18T13:47:43.724Z,1116.8
2023-12-18T13:49:27.450Z,1119
2023-12-18T13:51:11.194Z,1120.9
2023-12-18T13:52:54.835Z,1116.5
2023-12-18T13:54:38.227Z,1116
2023-12-18T13:56:22.286Z,1119.1
2023-12-18T13:58:05.926Z,1120.6
2023-12-18T13:59:49.374Z,1120.7
2023-12-18T14:01:33.180Z,1120.4
2023-12-18T14:03:17.111Z,1121.8
2023-12-18T14:05:00.445Z,1126.8
2023-12-18T14:06:44.415Z,1128.9
2023-12-18T14:08:27.875Z,1122.1
2023-12-18T14:10:11.659Z,1111.1
2023-12-18T14:11:55.530Z,1101.1
2023-12-18T14:13:39.186Z,1083.9
2023-12-18T14:15:22.830Z,1077.2
2023-12-18T14:17:06.717Z,1078.5
2023-12-18T14:18:50.360Z,1080.4
2023-12-18T14:20:33.886Z,1081.6
2023-12-18T14:22:17.726Z,1084.4
2023-12-18T14:24:01.394Z,1084.8
2023-12-18T14:25:45.124Z,1086
2023-12-18T14:27:28.842Z,1088.9
2023-12-18T14:29:12.524Z,1089.7
2023-12-18T14:30:56.368Z,1089.8
2023-12-18T14:32:40.053Z,1086.5
2023-12-18T14:34:23.630Z,1081.5
2023-12-18T14:36:07.140Z,1080.4
2023-12-18T14:37:50.980Z,1079
2023-12-18T14:39:34.838Z,1078.8
2023-12-18T14:41:18.545Z,1074.5
2023-12-18T14:43:02.237Z,1072.1
2023-12-18T14:44:45.907Z,1066.6
2023-12-18T14:46:29.326Z,1064
2023-12-18T14:48:13.339Z,1063.4
2023-12-18T14:49:56.901Z,1060.8
2023-12-18T14:51:40.751Z,1060.4
2023-12-18T14:53:24.478Z,1054.7
2023-12-18T14:55:07.833Z,1051.3
2023-12-18T14:56:51.841Z,1054.5
2023-12-18T14:58:35.579Z,1047.4
2023-12-18T15:00:19.098Z,1042.5
2023-12-18T15:02:02.967Z,1040.5
2023-12-18T15:03:46.362Z,1032.7
2023-12-18T15:05:30.319Z,1028.9
2023-12-18T15:07:14.079Z,1031.2
2023-12-18T15:08:57.812Z,1028.8
2023-12-18T15:10:41.537Z,1025.9
2023-12-18T15:12:24.881Z,1026
2023-12-18T15:14:08.907Z,1026.5
2023-12-18T15:15:52.523Z,1031.4
2023-12-18T15:17:36.011Z,1032.7
2023-12-18T15:19:19.945Z,1027.3
2023-12-18T15:21:03.744Z,1024.7
2023-12-18T15:22:47.168Z,1024.3
2023-12-18T15:24:31.092Z,1020.5
2023-12-18T15:26:14.750Z,1021
2023-12-18T15:27:58.437Z,1023
2023-12-18T15:29:42.183Z,1025.4
2023-12-18T15:31:25.877Z,1026.4
2023-12-18T15:33:09.437Z,1024.8
2023-12-18T15:34:53.362Z,1022.6
2023-12-18T15:36:36.988Z,1023.9
2023-12-18T15:38:20.821Z,1022.5
2023-12-18T15:40:04.497Z,1020.4
2023-12-18T15:41:48.254Z,1021.2
2023-12-18T15:43:31.747Z,1023.6
2023-12-18T15:45:15.537Z,1024.2
2023-12-18T15:46:59.248Z,1024.3
2023-12-18T15:48:42.905Z,1023.8
2023-12-18T15:50:26.572Z,1023.7
2023-12-18T15:52:10.329Z,1019.3
2023-12-18T15:53:54.061Z,1019.5
2023-12-18T15:55:37.737Z,1016.9
2023-12-18T15:57:21.140Z,1017.9
2023-12-18T15:59:05.159Z,1019.9
2023-12-18T16:00:48.809Z,1016.3
2023-12-18T16:02:32.527Z,1016.6
2023-12-18T16:04:16.256Z,1019.7
2023-12-18T16:05:59.815Z,1021.2
2023-12-18T16:08:32.110Z,1021.7
2023-12-18T16:09:27.431Z,1024.3
2023-12-18T16:11:11.126Z,1023.8
2023-12-18T16:12:54.567Z,1024.5
2023-12-18T16:14:38.462Z,1030.3
2023-12-18T16:16:22.190Z,1035.5
2023-12-18T16:18:05.811Z,1040.5
2023-12-18T16:19:49.390Z,1050.2
2023-12-18T16:21:33.325Z,1073.9
2023-12-18T16:23:17.072Z,1082.7
2023-12-18T16:25:00.402Z,1090.8
2023-12-18T16:26:44.413Z,1096.3
2023-12-18T16:28:28.109Z,1104.7
2023-12-18T16:30:11.733Z,1111.1
2023-12-18T16:31:55.532Z,1112.5
2023-12-18T16:33:39.220Z,1111.8
2023-12-18T16:35:22.997Z,1112.2
2023-12-18T16:37:06.534Z,1113.3
2023-12-18T16:38:50.322Z,1113
2023-12-18T16:40:34.118Z,1114.1
2023-12-18T16:42:17.617Z,1115.7
2023-12-18T16:44:01.408Z,1153.6
2023-12-18T16:45:44.877Z,1160.8
2023-12-18T16:47:28.664Z,1147
2023-12-18T16:49:12.404Z,1140.1
2023-12-18T16:50:56.219Z,1137.5
2023-12-18T16:52:39.626Z,1132.3
2023-12-18T16:54:23.638Z,1134.3
2023-12-18T16:56:07.126Z,1135
2023-12-18T16:57:51.034Z,1133.2
2023-12-18T16:59:34.537Z,1132.9
2023-12-18T17:01:18.245Z,1135
2023-12-18T17:03:02.009Z,1141.6
2023-12-18T17:04:45.634Z,1146
2023-12-18T17:06:29.366Z,1145.5
2023-12-18T17:08:13.220Z,1147.7
2023-12-18T17:09:56.689Z,1149.7
2023-12-18T17:11:40.514Z,1150.1
2023-12-18T17:13:24.244Z,1152.6
2023-12-18T17:15:08.164Z,1153.2
2023-12-18T17:16:51.647Z,1154.2
2023-12-18T17:18:35.483Z,1155.9
2023-12-18T17:20:19.136Z,1158.6
2023-12-18T17:22:02.890Z,1161.1
2023-12-18T17:23:46.258Z,1162.9
2023-12-18T17:25:30.281Z,1166.6
2023-12-18T17:27:13.934Z,1166.8
2023-12-18T17:28:57.674Z,1166.4
2023-12-18T17:30:41.484Z,1168.3
2023-12-18T17:32:24.994Z,1166.7
2023-12-18T17:34:08.498Z,1167.3
2023-12-18T17:35:52.430Z,1164
2023-12-18T17:37:36.236Z,1163.6
2023-12-18T17:39:19.617Z,1165.1
2023-12-18T17:41:03.392Z,1163.1
2023-12-18T17:42:47.282Z,1162.9
2023-12-18T17:44:30.748Z,1164.9
2023-12-18T17:46:14.753Z,1167.2
2023-12-18T17:47:58.278Z,1164.3
2023-12-18T17:49:42.139Z,1160.8
2023-12-18T17:51:25.840Z,1163.5
2023-12-18T17:53:09.547Z,1163.5
2023-12-18T17:54:52.926Z,1161.5
2023-12-18T17:56:36.615Z,1164.5
2023-12-18T17:58:20.689Z,1164
2023-12-18T18:00:04.255Z,1163.4
2023-12-18T18:01:48.044Z,1164
2023-12-18T18:03:31.698Z,1166.1
2023-12-18T18:05:15.360Z,1170
2023-12-18T18:06:59.170Z,1172.9
2023-12-18T18:08:42.825Z,1177.1
2023-12-18T18:10:26.529Z,1181.3
2023-12-18T18:12:10.220Z,1179.7
2023-12-18T18:13:53.870Z,1176.3
2023-12-18T18:15:37.352Z,1179.7
2023-12-18T18:17:21.137Z,1181.8
2023-12-18T18:19:04.984Z,1183.8
2023-12-18T18:20:48.769Z,1191.1
2023-12-18T18:22:32.457Z,1191.8
2023-12-18T18:24:15.872Z,1198.5
2023-12-18T18:25:59.580Z,1204.8
2023-12-18T18:27:43.481Z,1218.1
2023-12-18T18:29:27.218Z,1226.5
2023-12-18T18:31:10.782Z,1233
2023-12-18T18:32:54.339Z,1237
2023-12-18T18:34:38.328Z,1242.1
2023-12-18T18:36:21.776Z,1241.3
2023-12-18T18:38:05.566Z,1231.5
2023-12-18T18:39:49.463Z,1222.5
2023-12-18T18:41:33.146Z,1216.5
2023-12-18T18:43:16.692Z,1213.9
2023-12-18T18:45:00.662Z,1215.1
2023-12-18T18:46:44.299Z,1213.8
2023-12-18T18:48:27.857Z,1214
2023-12-18T18:50:11.690Z,1212.4
2023-12-18T18:51:55.080Z,1210.8
2023-12-18T18:53:39.073Z,1209.3
2023-12-18T18:55:22.756Z,1206.5
2023-12-18T18:57:06.465Z,1208.3
2023-12-18T18:58:50.220Z,1211.8
2023-12-18T19:00:33.935Z,1212
2023-12-18T19:02:17.581Z,1208.9
2023-12-18T19:04:01.088Z,1208
2023-12-18T19:05:45.006Z,1207.7
2023-12-18T19:07:28.396Z,1206.4
2023-12-18T19:09:12.105Z,1205.4
2023-12-18T19:10:56.100Z,1200.6
2023-12-18T19:12:39.821Z,1198.3
2023-12-18T19:14:23.485Z,1204.9
2023-12-18T19:16:07.236Z,1208.7
2023-12-18T19:17:50.976Z,1210.6
2023-12-18T19:19:34.605Z,1211.6
2023-12-18T19:21:18.316Z,1212.5
2023-12-18T19:23:02.105Z,1209.8
2023-12-18T19:24:45.568Z,1215.2
2023-12-18T19:26:29.391Z,1221
2023-12-18T19:28:13.093Z,1227.2
2023-12-18T19:29:56.789Z,1232.2
2023-12-18T19:31:40.562Z,1231.5
2023-12-18T19:33:23.939Z,1236.7
2023-12-18T19:35:07.855Z,1242.5
2023-12-18T19:36:51.451Z,1245.8
2023-12-18T19:38:35.323Z,1254.2
2023-12-18T19:40:19.037Z,1256
2023-12-18T19:42:02.804Z,1259.6
2023-12-18T19:43:46.405Z,1257.4
2023-12-18T19:45:30.103Z,1256.9
2023-12-18T19:47:13.835Z,1252.6
2023-12-18T19:48:57.373Z,1246.6
2023-12-18T19:50:41.062Z,1245.5
2023-12-18T19:52:24.663Z,1249.1
2023-12-18T19:54:08.493Z,1254.9
2023-12-18T19:55:52.061Z,1255.2
2023-12-18T19:57:35.739Z,1252.2
2023-12-18T19:59:19.469Z,1248.9
2023-12-18T20:01:03.173Z,1246.1
2023-12-18T20:02:46.883Z,1244.5
2023-12-18T20:04:30.555Z,1245.9
2023-12-18T20:06:14.295Z,1246.2
2023-12-18T20:07:57.946Z,1244.9
2023-12-18T20:09:41.711Z,1244.4
2023-12-18T20:11:25.508Z,1245
2023-12-18T20:13:09.277Z,1244.8
2023-12-18T20:14:52.789Z,1241.3
2023-12-18T20:16:36.462Z,1240.7
2023-12-18T20:18:20.185Z,1240.4
2023-12-18T20:20:03.952Z,1238.2
2023-12-18T20:21:47.635Z,1239.4
2023-12-18T20:23:31.530Z,1238.2
2023-12-18T20:25:14.981Z,1238.9
2023-12-18T20:26:58.681Z,1235.8
2023-12-18T20:28:42.389Z,1235.2
2023-12-18T20:30:26.168Z,1234.4
2023-12-18T20:32:09.828Z,1229.1
2023-12-18T20:33:53.788Z,1230.6
2023-12-18T20:35:37.382Z,1228.8
2023-12-18T20:37:20.952Z,1230
2023-12-18T20:39:04.675Z,1229.2
2023-12-18T20:40:48.304Z,1226
2023-12-18T20:42:32.151Z,1222.3
2023-12-18T20:44:15.776Z,1222.3
2023-12-18T20:45:59.399Z,1215.7
2023-12-18T20:47:43.118Z,1209.8
2023-12-18T20:49:26.869Z,1209.6
2023-12-18T20:51:10.563Z,1212.1
2023-12-18T20:52:54.209Z,1214
2023-12-18T20:54:37.916Z,1219
2023-12-18T20:56:21.628Z,1221.3
2023-12-18T20:58:05.315Z,1222.6
2023-12-18T20:59:49.230Z,1222.3
2023-12-18T21:01:32.816Z,1223.3
2023-12-18T21:03:16.566Z,1221.8
2023-12-18T21:05:00.165Z,1221.6
2023-12-18T21:06:43.836Z,1216.6
2023-12-18T21:08:27.576Z,1213.8
2023-12-18T21:10:11.233Z,1208
2023-12-18T21:11:54.953Z,1206.2
2023-12-18T21:13:38.649Z,1205.1
2023-12-18T21:15:22.371Z,1206
2023-12-18T21:17:06.060Z,1204.4
2023-12-18T21:18:49.736Z,1204.3
2023-12-18T21:20:33.452Z,1202.5
2023-12-18T21:22:17.180Z,1203.7
2023-12-18T21:24:00.877Z,1207
2023-12-18T21:25:44.552Z,1208.3
2023-12-18T21:27:28.257Z,1211.9
2023-12-18T21:29:11.981Z,1213.3
2023-12-18T21:30:55.731Z,1211.5
2023-12-18T21:32:39.363Z,1209.3
2023-12-18T21:34:23.081Z,1204.8
2023-12-18T21:36:06.763Z,1200.2
2023-12-18T21:37:50.467Z,1197.8
2023-12-18T21:39:34.168Z,1199.2
2023-12-18T21:41:17.947Z,1203.1
2023-12-18T21:43:01.564Z,1203.8
2023-12-18T21:44:45.275Z,1203.2
2023-12-18T21:46:28.996Z,1201.7
2023-12-18T21:48:12.680Z,1200.7
2023-12-18T21:49:56.383Z,1199
2023-12-18T21:51:40.128Z,1195.2
2023-12-18T21:53:23.796Z,1192.7
2023-12-18T21:55:07.489Z,1189.9
2023-12-18T21:56:51.186Z,1184.6
2023-12-18T21:58:34.888Z,1182.1
2023-12-18T22:00:18.591Z,1179.5
2023-12-18T22:02:02.310Z,1174.8
2023-12-18T22:03:45.985Z,1164.2
2023-12-18T22:05:29.687Z,1161.5
2023-12-18T22:07:13.399Z,1158.4
2023-12-18T22:08:57.120Z,1155.9